Time,TemperatureF,DewpointF,PressureIn,WindDirection,WindDirectionDegrees,WindSpeedMPH,WindSpeedGustMPH,Humidity,HourlyPrecipIn,Conditions,Clouds,dailyrainin,SoftwareType,DateUTC
2014-01-18 01:22:00,55.0,47.0,30.07,SW,216,2.0,5.0,75,0.00,,,0.00,,2014-01-18 06:22:00,
2014-01-18 01:32:00,55.0,47.0,30.07,SW,216,2.0,5.0,75,0.00,,,0.00,,2014-01-18 06:32:00,
2014-01-18 01:42:00,55.0,47.0,30.07,SW,216,2.0,5.0,75,0.00,,,0.00,,2014-01-18 06:42:00,
2014-01-18 01:52:00,54.0,47.0,30.07,WSW,240,0.0,7.0,77,0.00,,,0.00,,2014-01-18 06:52:00,
2014-01-18 02:02:00,54.0,47.0,30.07,WSW,240,0.0,7.0,77,0.00,,,0.00,,2014-01-18 07:02:00,
2014-01-18 02:12:00,54.0,47.0,30.07,WSW,240,0.0,7.0,77,0.00,,,0.00,,2014-01-18 07:12:00,
2014-01-18 02:22:00,54.0,48.0,30.07,SSW,195,0.0,2.0,80,0.00,,,0.00,,2014-01-18 07:22:00,
2014-01-18 02:32:00,54.0,48.0,30.07,SSW,195,0.0,2.0,80,0.00,,,0.00,,2014-01-18 07:32:00,
2014-01-18 02:42:00,54.0,48.0,30.07,SSW,195,0.0,2.0,80,0.00,,,0.00,,2014-01-18 07:42:00,
2014-01-18 02:53:00,53.0,48.0,30.07,SSW,193,0.0,1.0,82,0.00,,,0.00,,2014-01-18 07:53:00,
2014-01-18 03:02:00,53.0,48.0,30.07,SSW,193,0.0,1.0,82,0.00,,,0.00,,2014-01-18 08:02:00,
2014-01-18 03:12:00,53.0,48.0,30.07,SSW,193,0.0,1.0,82,0.00,,,0.00,,2014-01-18 08:12:00,
2014-01-18 03:22:00,54.0,49.0,30.08,SSW,212,3.0,9.0,84,0.00,,,0.00,,2014-01-18 08:22:00,
2014-01-18 03:32:00,54.0,49.0,30.08,SSW,212,3.0,9.0,84,0.00,,,0.00,,2014-01-18 08:32:00,
2014-01-18 03:42:00,54.0,49.0,30.08,SSW,212,3.0,9.0,84,0.00,,,0.00,,2014-01-18 08:42:00,
2014-01-18 03:52:00,55.0,51.0,30.09,West,274,3.0,7.0,85,0.00,,,0.00,,2014-01-18 08:52:00,
2014-01-18 04:02:00,55.0,51.0,30.09,West,274,3.0,7.0,85,0.00,,,0.00,,2014-01-18 09:02:00,
2014-01-18 04:22:00,54.0,50.0,30.10,NW,313,0.0,12.0,85,0.00,,,0.00,,2014-01-18 09:22:00,
2014-01-18 04:33:00,54.0,50.0,30.10,NW,313,0.0,12.0,85,0.00,,,0.00,,2014-01-18 09:33:00,
2014-01-18 04:43:00,54.0,50.0,30.10,NW,313,0.0,12.0,85,0.00,,,0.00,,2014-01-18 09:43:00,
2014-01-18 04:53:00,53.0,47.0,30.11,West,268,6.0,11.0,79,0.00,,,0.00,,2014-01-18 09:53:00,
2014-01-18 05:01:00,51.0,37.0,30.12,WNW,282,3.0,10.0,59,0.00,,,0.00,,2014-01-18 10:01:00,
2014-01-18 05:03:00,53.0,47.0,30.11,West,268,6.0,11.0,79,0.00,,,0.00,,2014-01-18 10:03:00,
2014-01-18 05:23:00,51.0,37.0,30.12,WNW,282,3.0,10.0,59,0.00,,,0.00,,2014-01-18 10:23:00,
2014-01-18 05:33:00,51.0,37.0,30.12,WNW,282,3.0,10.0,59,0.00,,,0.00,,2014-01-18 10:33:00,
2014-01-18 05:42:00,51.0,37.0,30.12,WNW,282,3.0,10.0,59,0.00,,,0.00,,2014-01-18 10:42:00,
2014-01-18 05:53:00,51.0,37.0,30.12,WNW,282,3.0,10.0,59,0.00,,,0.00,,2014-01-18 10:53:00,
2014-01-18 08:52:00,46.0,33.0,30.22,North,353,5.0,10.0,60,0.00,,,0.00,,2014-01-18 13:52:00,
2014-01-18 09:02:00,46.0,33.0,30.22,North,353,5.0,10.0,60,0.00,,,0.00,,2014-01-18 14:02:00,
2014-01-18 09:22:00,46.0,25.0,30.23,West,260,2.0,13.0,43,0.00,,,0.00,,2014-01-18 14:22:00,
2014-01-18 09:32:00,46.0,25.0,30.23,West,260,2.0,13.0,43,0.00,,,0.00,,2014-01-18 14:32:00,
2014-01-18 09:42:00,46.0,25.0,30.23,West,260,2.0,13.0,43,0.00,,,0.00,,2014-01-18 14:42:00,
2014-01-18 09:52:00,46.0,25.0,30.24,NNW,330,3.0,13.0,44,0.00,,,0.00,,2014-01-18 14:52:00,
2014-01-18 10:02:00,46.0,25.0,30.24,NNW,330,3.0,13.0,44,0.00,,,0.00,,2014-01-18 15:02:00,
2014-01-18 10:22:00,47.0,23.0,30.24,North,360,2.0,10.0,39,0.00,,,0.00,,2014-01-18 15:22:00,
2014-01-18 10:33:00,47.0,23.0,30.24,North,360,2.0,10.0,39,0.00,,,0.00,,2014-01-18 15:33:00,
2014-01-18 10:53:00,48.0,20.0,30.24,NW,309,3.0,11.0,32,0.00,,,0.00,,2014-01-18 15:53:00,
2014-01-18 11:03:00,48.0,20.0,30.24,NW,309,3.0,11.0,32,0.00,,,0.00,,2014-01-18 16:03:00,
2014-01-18 11:13:00,48.0,20.0,30.24,NW,309,3.0,11.0,32,0.00,,,0.00,,2014-01-18 16:13:00,
2014-01-18 11:23:00,48.0,16.0,30.25,NW,306,4.0,12.0,28,0.00,,,0.00,,2014-01-18 16:23:00,
2014-01-18 11:33:00,48.0,16.0,30.25,NW,306,4.0,12.0,28,0.00,,,0.00,,2014-01-18 16:33:00,
2014-01-18 11:43:00,48.0,16.0,30.25,NW,306,4.0,12.0,28,0.00,,,0.00,,2014-01-18 16:43:00,
2014-01-18 11:52:00,49.0,17.0,30.24,NE,41,5.0,12.0,28,0.00,,,0.00,,2014-01-18 16:52:00,
2014-01-18 12:02:00,49.0,17.0,30.24,NE,41,5.0,12.0,28,0.00,,,0.00,,2014-01-18 17:02:00,
2014-01-18 12:22:00,50.0,19.0,30.22,North,349,2.0,10.0,29,0.00,,,0.00,,2014-01-18 17:22:00,
2014-01-18 12:33:00,50.0,19.0,30.22,North,349,2.0,10.0,29,0.00,,,0.00,,2014-01-18 17:33:00,
2014-01-18 12:42:00,50.0,19.0,30.22,North,349,2.0,10.0,29,0.00,,,0.00,,2014-01-18 17:42:00,
2014-01-18 12:52:00,51.0,16.0,30.20,NW,304,6.0,13.0,25,0.00,,,0.00,,2014-01-18 17:52:00,
2014-01-18 13:02:00,51.0,16.0,30.20,NW,304,6.0,13.0,25,0.00,,,0.00,,2014-01-18 18:02:00,
2014-01-18 13:12:00,51.0,16.0,30.20,NW,304,6.0,13.0,25,0.00,,,0.00,,2014-01-18 18:12:00,
2014-01-18 13:22:00,52.0,17.0,30.19,WSW,239,2.0,11.0,25,0.00,,,0.00,,2014-01-18 18:22:00,
2014-01-18 13:32:00,52.0,17.0,30.19,WSW,239,2.0,11.0,25,0.00,,,0.00,,2014-01-18 18:32:00,
2014-01-18 13:52:00,52.0,15.0,30.17,WSW,239,2.0,12.0,23,0.00,,,0.00,,2014-01-18 18:52:00,
2014-01-18 14:02:00,52.0,15.0,30.17,WSW,239,2.0,12.0,23,0.00,,,0.00,,2014-01-18 19:02:00,
2014-01-18 14:22:00,53.0,16.0,30.16,WNW,294,5.0,13.0,23,0.00,,,0.00,,2014-01-18 19:22:00,
2014-01-18 14:32:00,53.0,16.0,30.16,WNW,294,5.0,13.0,23,0.00,,,0.00,,2014-01-18 19:32:00,
2014-01-18 14:42:00,53.0,16.0,30.16,WNW,294,5.0,13.0,23,0.00,,,0.00,,2014-01-18 19:42:00,
2014-01-18 14:52:00,53.0,16.0,30.15,WNW,299,5.0,13.0,23,0.00,,,0.00,,2014-01-18 19:52:00,
2014-01-18 15:02:00,53.0,16.0,30.15,WNW,299,5.0,13.0,23,0.00,,,0.00,,2014-01-18 20:02:00,
2014-01-18 15:22:00,55.0,20.0,30.15,West,264,2.0,11.0,25,0.00,,,0.00,,2014-01-18 20:22:00,
2014-01-18 15:32:00,55.0,20.0,30.15,West,264,2.0,11.0,25,0.00,,,0.00,,2014-01-18 20:32:00,
2014-01-18 15:52:00,55.0,20.0,30.15,WNW,299,2.0,8.0,25,0.00,,,0.00,,2014-01-18 20:52:00,
2014-01-18 16:02:00,55.0,20.0,30.15,WNW,299,2.0,8.0,25,0.00,,,0.00,,2014-01-18 21:02:00,
2014-01-18 16:12:00,55.0,20.0,30.15,WNW,299,2.0,8.0,25,0.00,,,0.00,,2014-01-18 21:12:00,
2014-01-18 16:22:00,55.0,20.0,30.15,SW,215,2.0,6.0,25,0.00,,,0.00,,2014-01-18 21:22:00,
2014-01-18 16:33:00,55.0,20.0,30.15,SW,215,2.0,6.0,25,0.00,,,0.00,,2014-01-18 21:33:00,
2014-01-18 16:43:00,55.0,20.0,30.15,SW,215,2.0,6.0,25,0.00,,,0.00,,2014-01-18 21:43:00,
2014-01-18 16:53:00,54.0,16.0,30.16,NW,319,4.0,11.0,22,0.00,,,0.00,,2014-01-18 21:53:00,
2014-01-18 17:03:00,54.0,16.0,30.16,NW,319,4.0,11.0,22,0.00,,,0.00,,2014-01-18 22:03:00,
2014-01-18 17:22:00,54.0,18.0,30.16,NW,304,3.0,8.0,24,0.00,,,0.00,,2014-01-18 22:22:00,
2014-01-18 17:33:00,54.0,18.0,30.16,NW,304,3.0,8.0,24,0.00,,,0.00,,2014-01-18 22:33:00,
2014-01-18 17:53:00,53.0,20.0,30.16,WNW,302,1.0,5.0,27,0.00,,,0.00,,2014-01-18 22:53:00,
2014-01-18 18:02:00,53.0,20.0,30.16,WNW,302,1.0,5.0,27,0.00,,,0.00,,2014-01-18 23:02:00,
2014-01-18 18:22:00,52.0,22.0,30.16,West,281,0.0,2.0,30,0.00,,,0.00,,2014-01-18 23:22:00,
2014-01-18 18:32:00,52.0,22.0,30.16,West,281,0.0,2.0,30,0.00,,,0.00,,2014-01-18 23:32:00,
2014-01-18 18:53:00,50.0,21.0,30.16,West,281,0.0,0.0,32,0.00,,,0.00,,2014-01-18 23:53:00,
2014-01-18 19:02:00,50.0,21.0,30.16,West,281,0.0,0.0,32,0.00,,,0.00,,2014-01-19 00:02:00,
2014-01-18 19:11:00,50.0,21.0,30.16,West,281,0.0,0.0,32,0.00,,,0.00,,2014-01-19 00:11:00,
2014-01-18 19:22:00,47.0,24.0,30.16,West,281,0.0,0.0,40,0.00,,,0.00,,2014-01-19 00:22:00,
2014-01-18 19:32:00,47.0,24.0,30.16,West,281,0.0,0.0,40,0.00,,,0.00,,2014-01-19 00:32:00,
2014-01-18 19:42:00,47.0,24.0,30.16,West,281,0.0,0.0,40,0.00,,,0.00,,2014-01-19 00:42:00,
2014-01-18 19:52:00,46.0,26.0,30.17,WSW,257,0.0,3.0,45,0.00,,,0.00,,2014-01-19 00:52:00,
2014-01-18 20:02:00,46.0,26.0,30.17,WSW,257,0.0,3.0,45,0.00,,,0.00,,2014-01-19 01:02:00,
2014-01-18 20:22:00,47.0,23.0,30.18,West,264,1.0,6.0,39,0.00,,,0.00,,2014-01-19 01:22:00,
2014-01-18 20:32:00,47.0,23.0,30.18,West,264,1.0,6.0,39,0.00,,,0.00,,2014-01-19 01:32:00,
2014-01-18 20:42:00,47.0,23.0,30.18,West,264,1.0,6.0,39,0.00,,,0.00,,2014-01-19 01:42:00,
2014-01-18 20:52:00,46.0,24.0,30.18,West,267,0.0,6.0,41,0.00,,,0.00,,2014-01-19 01:52:00,
2014-01-18 21:02:00,46.0,24.0,30.18,West,267,0.0,6.0,41,0.00,,,0.00,,2014-01-19 02:02:00,
2014-01-18 21:12:00,46.0,24.0,30.18,West,267,0.0,6.0,41,0.00,,,0.00,,2014-01-19 02:12:00,
2014-01-18 21:22:00,45.0,25.0,30.19,WNW,282,2.0,6.0,45,0.00,,,0.00,,2014-01-19 02:22:00,
2014-01-18 21:31:00,45.0,27.0,30.19,WSW,254,2.0,7.0,49,0.00,,,0.00,,2014-01-19 02:31:00,
2014-01-18 21:32:00,45.0,25.0,30.19,WNW,282,2.0,6.0,45,0.00,,,0.00,,2014-01-19 02:32:00,
2014-01-18 21:52:00,45.0,27.0,30.19,WSW,254,2.0,7.0,49,0.00,,,0.00,,2014-01-19 02:52:00,
2014-01-18 22:02:00,45.0,27.0,30.19,WSW,254,2.0,7.0,49,0.00,,,0.00,,2014-01-19 03:02:00,
2014-01-18 22:11:00,45.0,27.0,30.19,WSW,254,2.0,7.0,49,0.00,,,0.00,,2014-01-19 03:11:00,
2014-01-18 22:22:00,45.0,27.0,30.19,WSW,254,2.0,7.0,49,0.00,,,0.00,,2014-01-19 03:22:00,